sensor_id;sensor_type;location;lat;lon;timestamp;temperature;humidity
25512;DHT22;13414;44.534;18.700;2023-04-22T00:01:46;7.40;99.90
25512;DHT22;13414;44.534;18.700;2023-04-22T00:04:13;7.30;99.90
25512;DHT22;13414;44.534;18.700;2023-04-22T00:06:41;7.30;99.90
25512;DHT22;13414;44.534;18.700;2023-04-22T00:09:08;7.20;99.90
25512;DHT22;13414;44.534;18.700;2023-04-22T00:11:36;7.20;99.90
25512;DHT22;13414;44.534;18.700;2023-04-22T00:14:04;7.20;99.90
25512;DHT22;13414;44.534;18.700;2023-04-22T00:16:31;7.10;99.90
25512;DHT22;13414;44.534;18.700;2023-04-22T00:19:00;7.10;99.90
25512;DHT22;13414;44.534;18.700;2023-04-22T00:21:28;7.10;99.90
25512;DHT22;13414;44.534;18.700;2023-04-22T00:23:55;7.10;99.90
25512;DHT22;13414;44.534;18.700;2023-04-22T00:26:23;7.00;99.90
25512;DHT22;13414;44.534;18.700;2023-04-22T00:28:50;7.00;99.90
25512;DHT22;13414;44.534;18.700;2023-04-22T00:31:18;7.00;99.90
25512;DHT22;13414;44.534;18.700;2023-04-22T00:33:45;6.90;99.90
25512;DHT22;13414;44.534;18.700;2023-04-22T00:36:14;6.80;99.90
25512;DHT22;13414;44.534;18.700;2023-04-22T00:38:47;6.70;99.90
25512;DHT22;13414;44.534;18.700;2023-04-22T00:41:15;6.60;99.90
25512;DHT22;13414;44.534;18.700;2023-04-22T00:43:42;6.60;99.90
25512;DHT22;13414;44.534;18.700;2023-04-22T00:46:10;6.60;99.90
25512;DHT22;13414;44.534;18.700;2023-04-22T00:48:38;6.60;99.90
25512;DHT22;13414;44.534;18.700;2023-04-22T00:51:06;6.60;99.90
25512;DHT22;13414;44.534;18.700;2023-04-22T00:53:35;6.60;99.90
25512;DHT22;13414;44.534;18.700;2023-04-22T00:56:03;6.70;99.90
25512;DHT22;13414;44.534;18.700;2023-04-22T00:58:30;6.60;99.90
25512;DHT22;13414;44.534;18.700;2023-04-22T01:00:59;6.60;99.90
25512;DHT22;13414;44.534;18.700;2023-04-22T01:03:26;6.60;99.90
25512;DHT22;13414;44.534;18.700;2023-04-22T01:05:56;6.50;99.90
25512;DHT22;13414;44.534;18.700;2023-04-22T01:08:27;6.50;99.90
25512;DHT22;13414;44.534;18.700;2023-04-22T01:10:57;6.50;99.90
25512;DHT22;13414;44.534;18.700;2023-04-22T01:13:24;6.50;99.90
25512;DHT22;13414;44.534;18.700;2023-04-22T01:15:52;6.60;99.90
25512;DHT22;13414;44.534;18.700;2023-04-22T01:18:20;6.60;99.90
25512;DHT22;13414;44.534;18.700;2023-04-22T01:20:48;6.60;99.90
25512;DHT22;13414;44.534;18.700;2023-04-22T01:23:20;6.50;99.90
25512;DHT22;13414;44.534;18.700;2023-04-22T01:25:48;6.50;99.90
25512;DHT22;13414;44.534;18.700;2023-04-22T01:28:16;6.40;99.90
25512;DHT22;13414;44.534;18.700;2023-04-22T01:30:44;6.40;99.90
25512;DHT22;13414;44.534;18.700;2023-04-22T01:33:11;6.40;99.90
25512;DHT22;13414;44.534;18.700;2023-04-22T01:35:39;6.30;99.90
25512;DHT22;13414;44.534;18.700;2023-04-22T01:38:08;6.30;99.90
25512;DHT22;13414;44.534;18.700;2023-04-22T01:40:38;6.20;99.90
25512;DHT22;13414;44.534;18.700;2023-04-22T01:43:06;6.20;99.90
25512;DHT22;13414;44.534;18.700;2023-04-22T01:45:33;6.20;99.90
25512;DHT22;13414;44.534;18.700;2023-04-22T01:48:01;6.20;99.90
25512;DHT22;13414;44.534;18.700;2023-04-22T01:50:28;6.30;99.90
25512;DHT22;13414;44.534;18.700;2023-04-22T01:52:56;6.30;99.90
25512;DHT22;13414;44.534;18.700;2023-04-22T01:55:24;6.20;99.90
25512;DHT22;13414;44.534;18.700;2023-04-22T01:57:52;6.20;99.90
25512;DHT22;13414;44.534;18.700;2023-04-22T02:00:20;6.20;99.90
25512;DHT22;13414;44.534;18.700;2023-04-22T02:02:47;6.10;99.90
25512;DHT22;13414;44.534;18.700;2023-04-22T02:05:16;6.10;99.90
25512;DHT22;13414;44.534;18.700;2023-04-22T02:07:45;6.10;99.90
25512;DHT22;13414;44.534;18.700;2023-04-22T02:10:15;6.10;99.90
25512;DHT22;13414;44.534;18.700;2023-04-22T02:12:43;6.10;99.90
25512;DHT22;13414;44.534;18.700;2023-04-22T02:15:14;6.00;99.90
25512;DHT22;13414;44.534;18.700;2023-04-22T02:17:42;6.00;99.90
25512;DHT22;13414;44.534;18.700;2023-04-22T02:20:11;6.00;99.90
25512;DHT22;13414;44.534;18.700;2023-04-22T02:22:39;6.00;99.90
25512;DHT22;13414;44.534;18.700;2023-04-22T02:25:09;5.90;99.90
25512;DHT22;13414;44.534;18.700;2023-04-22T02:27:37;5.90;99.90
25512;DHT22;13414;44.534;18.700;2023-04-22T02:30:06;5.90;99.90
25512;DHT22;13414;44.534;18.700;2023-04-22T02:32:35;5.90;99.90
25512;DHT22;13414;44.534;18.700;2023-04-22T02:35:05;5.80;99.90
25512;DHT22;13414;44.534;18.700;2023-04-22T02:37:33;5.80;99.90
25512;DHT22;13414;44.534;18.700;2023-04-22T02:40:00;5.80;99.90
25512;DHT22;13414;44.534;18.700;2023-04-22T02:42:29;5.80;99.90
25512;DHT22;13414;44.534;18.700;2023-04-22T02:44:57;5.80;99.90
25512;DHT22;13414;44.534;18.700;2023-04-22T02:47:24;5.70;99.90
25512;DHT22;13414;44.534;18.700;2023-04-22T02:49:53;5.80;99.90
25512;DHT22;13414;44.534;18.700;2023-04-22T02:52:21;5.70;99.90
25512;DHT22;13414;44.534;18.700;2023-04-22T02:54:48;5.70;99.90
25512;DHT22;13414;44.534;18.700;2023-04-22T02:57:16;5.70;99.90
25512;DHT22;13414;44.534;18.700;2023-04-22T02:59:43;5.70;99.90
25512;DHT22;13414;44.534;18.700;2023-04-22T03:02:14;5.70;99.90
25512;DHT22;13414;44.534;18.700;2023-04-22T03:05:01;5.60;99.90
25512;DHT22;13414;44.534;18.700;2023-04-22T03:07:30;5.60;99.90
25512;DHT22;13414;44.534;18.700;2023-04-22T03:09:58;5.60;99.90
25512;DHT22;13414;44.534;18.700;2023-04-22T03:12:25;5.60;99.90
25512;DHT22;13414;44.534;18.700;2023-04-22T03:14:53;5.60;99.90
25512;DHT22;13414;44.534;18.700;2023-04-22T03:17:22;5.60;99.90
25512;DHT22;13414;44.534;18.700;2023-04-22T03:19:50;5.60;99.90
25512;DHT22;13414;44.534;18.700;2023-04-22T03:22:21;5.50;99.90
25512;DHT22;13414;44.534;18.700;2023-04-22T03:24:51;5.50;99.90
25512;DHT22;13414;44.534;18.700;2023-04-22T03:27:19;5.50;99.90
25512;DHT22;13414;44.534;18.700;2023-04-22T03:29:46;5.60;99.90
25512;DHT22;13414;44.534;18.700;2023-04-22T03:32:13;5.60;99.90
25512;DHT22;13414;44.534;18.700;2023-04-22T03:34:41;5.50;99.90
25512;DHT22;13414;44.534;18.700;2023-04-22T03:37:09;5.50;99.90
25512;DHT22;13414;44.534;18.700;2023-04-22T03:39:38;5.40;99.90
25512;DHT22;13414;44.534;18.700;2023-04-22T03:42:07;5.40;99.90
25512;DHT22;13414;44.534;18.700;2023-04-22T03:44:40;5.40;99.90
25512;DHT22;13414;44.534;18.700;2023-04-22T03:47:07;5.40;99.90
25512;DHT22;13414;44.534;18.700;2023-04-22T03:49:41;5.40;99.90
25512;DHT22;13414;44.534;18.700;2023-04-22T03:52:08;5.40;99.90
25512;DHT22;13414;44.534;18.700;2023-04-22T03:54:42;5.30;99.90
25512;DHT22;13414;44.534;18.700;2023-04-22T03:57:09;5.20;99.90
25512;DHT22;13414;44.534;18.700;2023-04-22T03:59:37;5.20;99.90
25512;DHT22;13414;44.534;18.700;2023-04-22T04:02:05;5.20;99.90
25512;DHT22;13414;44.534;18.700;2023-04-22T04:04:33;5.20;99.90
25512;DHT22;13414;44.534;18.700;2023-04-22T04:07:01;5.20;99.90
25512;DHT22;13414;44.534;18.700;2023-04-22T04:09:29;5.20;99.90
25512;DHT22;13414;44.534;18.700;2023-04-22T04:11:57;5.30;99.90
25512;DHT22;13414;44.534;18.700;2023-04-22T04:14:30;5.40;99.90
25512;DHT22;13414;44.534;18.700;2023-04-22T04:16:58;5.40;99.90
25512;DHT22;13414;44.534;18.700;2023-04-22T04:19:29;5.50;99.90
25512;DHT22;13414;44.534;18.700;2023-04-22T04:21:56;5.60;99.90
25512;DHT22;13414;44.534;18.700;2023-04-22T04:24:26;5.60;99.90
25512;DHT22;13414;44.534;18.700;2023-04-22T04:27:02;5.60;99.90
25512;DHT22;13414;44.534;18.700;2023-04-22T04:29:37;5.70;99.90
25512;DHT22;13414;44.534;18.700;2023-04-22T04:32:11;5.80;99.90
25512;DHT22;13414;44.534;18.700;2023-04-22T04:34:39;5.90;99.90
25512;DHT22;13414;44.534;18.700;2023-04-22T04:37:08;6.00;99.90
25512;DHT22;13414;44.534;18.700;2023-04-22T04:39:59;6.10;99.90
25512;DHT22;13414;44.534;18.700;2023-04-22T04:42:40;6.00;99.90
25512;DHT22;13414;44.534;18.700;2023-04-22T04:45:14;6.10;99.90
25512;DHT22;13414;44.534;18.700;2023-04-22T04:47:43;6.10;99.90
25512;DHT22;13414;44.534;18.700;2023-04-22T04:50:21;6.10;99.90
25512;DHT22;13414;44.534;18.700;2023-04-22T04:52:49;6.20;99.90
25512;DHT22;13414;44.534;18.700;2023-04-22T04:55:22;6.30;99.90
25512;DHT22;13414;44.534;18.700;2023-04-22T04:57:51;6.50;99.90
25512;DHT22;13414;44.534;18.700;2023-04-22T05:00:18;6.70;99.90
25512;DHT22;13414;44.534;18.700;2023-04-22T05:02:46;6.80;99.90
25512;DHT22;13414;44.534;18.700;2023-04-22T05:05:13;6.80;99.90
25512;DHT22;13414;44.534;18.700;2023-04-22T05:07:42;6.90;99.90
25512;DHT22;13414;44.534;18.700;2023-04-22T05:10:12;6.80;99.90
25512;DHT22;13414;44.534;18.700;2023-04-22T05:12:40;6.80;99.90
25512;DHT22;13414;44.534;18.700;2023-04-22T05:15:14;6.80;99.90
25512;DHT22;13414;44.534;18.700;2023-04-22T05:17:42;6.80;99.90
25512;DHT22;13414;44.534;18.700;2023-04-22T05:20:10;7.00;99.90
25512;DHT22;13414;44.534;18.700;2023-04-22T05:22:39;7.00;99.90
25512;DHT22;13414;44.534;18.700;2023-04-22T05:25:09;6.90;99.90
25512;DHT22;13414;44.534;18.700;2023-04-22T05:27:42;6.90;99.90
25512;DHT22;13414;44.534;18.700;2023-04-22T05:30:11;7.10;99.90
25512;DHT22;13414;44.534;18.700;2023-04-22T05:32:40;7.00;99.90
25512;DHT22;13414;44.534;18.700;2023-04-22T05:35:09;7.10;99.90
25512;DHT22;13414;44.534;18.700;2023-04-22T05:37:38;7.20;99.90
25512;DHT22;13414;44.534;18.700;2023-04-22T05:40:06;7.50;99.90
25512;DHT22;13414;44.534;18.700;2023-04-22T05:42:34;7.60;99.90
25512;DHT22;13414;44.534;18.700;2023-04-22T05:45:02;7.70;99.90
25512;DHT22;13414;44.534;18.700;2023-04-22T05:47:30;7.80;99.90
25512;DHT22;13414;44.534;18.700;2023-04-22T05:49:59;7.90;99.90
25512;DHT22;13414;44.534;18.700;2023-04-22T05:52:34;8.20;99.90
25512;DHT22;13414;44.534;18.700;2023-04-22T05:55:08;8.30;99.90
25512;DHT22;13414;44.534;18.700;2023-04-22T05:57:35;8.30;99.90
25512;DHT22;13414;44.534;18.700;2023-04-22T06:00:08;8.60;99.90
25512;DHT22;13414;44.534;18.700;2023-04-22T06:02:50;8.70;99.90
25512;DHT22;13414;44.534;18.700;2023-04-22T06:05:19;9.00;99.90
25512;DHT22;13414;44.534;18.700;2023-04-22T06:07:46;9.30;99.90
25512;DHT22;13414;44.534;18.700;2023-04-22T06:10:14;9.50;99.90
25512;DHT22;13414;44.534;18.700;2023-04-22T06:12:42;9.80;99.90
25512;DHT22;13414;44.534;18.700;2023-04-22T06:15:10;9.80;99.90
25512;DHT22;13414;44.534;18.700;2023-04-22T06:17:38;10.00;99.90
25512;DHT22;13414;44.534;18.700;2023-04-22T06:20:06;10.10;99.90
25512;DHT22;13414;44.534;18.700;2023-04-22T06:22:36;10.00;99.90
25512;DHT22;13414;44.534;18.700;2023-04-22T06:25:04;10.20;99.90
25512;DHT22;13414;44.534;18.700;2023-04-22T06:27:31;10.40;99.90
25512;DHT22;13414;44.534;18.700;2023-04-22T06:29:59;10.80;99.90
25512;DHT22;13414;44.534;18.700;2023-04-22T06:32:29;11.10;99.90
25512;DHT22;13414;44.534;18.700;2023-04-22T06:34:56;11.50;99.90
25512;DHT22;13414;44.534;18.700;2023-04-22T06:37:24;11.70;99.90
25512;DHT22;13414;44.534;18.700;2023-04-22T06:39:53;11.60;99.90
25512;DHT22;13414;44.534;18.700;2023-04-22T06:42:39;11.60;99.90
25512;DHT22;13414;44.534;18.700;2023-04-22T06:45:35;12.00;99.90
25512;DHT22;13414;44.534;18.700;2023-04-22T06:48:16;12.40;99.90
25512;DHT22;13414;44.534;18.700;2023-04-22T06:51:04;12.40;99.90
25512;DHT22;13414;44.534;18.700;2023-04-22T06:53:31;12.70;99.90
25512;DHT22;13414;44.534;18.700;2023-04-22T06:56:00;13.10;99.90
25512;DHT22;13414;44.534;18.700;2023-04-22T06:58:28;13.50;99.90
25512;DHT22;13414;44.534;18.700;2023-04-22T07:00:55;13.80;99.90
25512;DHT22;13414;44.534;18.700;2023-04-22T07:03:23;13.70;99.90
25512;DHT22;13414;44.534;18.700;2023-04-22T07:06:01;13.60;99.90
25512;DHT22;13414;44.534;18.700;2023-04-22T07:08:30;13.50;99.90
25512;DHT22;13414;44.534;18.700;2023-04-22T07:11:00;13.20;99.90
25512;DHT22;13414;44.534;18.700;2023-04-22T07:13:53;13.30;99.90
25512;DHT22;13414;44.534;18.700;2023-04-22T07:16:21;13.50;99.90
25512;DHT22;13414;44.534;18.700;2023-04-22T07:18:49;13.80;99.90
25512;DHT22;13414;44.534;18.700;2023-04-22T07:21:17;14.30;99.90
25512;DHT22;13414;44.534;18.700;2023-04-22T07:23:44;14.70;99.90
25512;DHT22;13414;44.534;18.700;2023-04-22T07:26:13;14.90;99.90
25512;DHT22;13414;44.534;18.700;2023-04-22T07:28:41;15.10;99.90
25512;DHT22;13414;44.534;18.700;2023-04-22T07:31:08;15.30;99.90
25512;DHT22;13414;44.534;18.700;2023-04-22T07:33:36;15.20;99.90
25512;DHT22;13414;44.534;18.700;2023-04-22T07:36:04;15.30;99.90
25512;DHT22;13414;44.534;18.700;2023-04-22T07:38:31;15.70;99.90
25512;DHT22;13414;44.534;18.700;2023-04-22T07:40:59;16.00;96.50
25512;DHT22;13414;44.534;18.700;2023-04-22T07:43:28;16.10;94.10
25512;DHT22;13414;44.534;18.700;2023-04-22T07:45:55;16.00;93.60
25512;DHT22;13414;44.534;18.700;2023-04-22T07:48:23;16.00;93.50
25512;DHT22;13414;44.534;18.700;2023-04-22T07:50:50;16.20;92.50
25512;DHT22;13414;44.534;18.700;2023-04-22T07:53:18;16.50;91.70
25512;DHT22;13414;44.534;18.700;2023-04-22T07:55:46;16.70;90.80
25512;DHT22;13414;44.534;18.700;2023-04-22T07:58:14;16.80;88.90
25512;DHT22;13414;44.534;18.700;2023-04-22T08:00:43;16.60;87.40
25512;DHT22;13414;44.534;18.700;2023-04-22T08:03:11;16.70;87.20
25512;DHT22;13414;44.534;18.700;2023-04-22T08:05:38;16.80;87.20
25512;DHT22;13414;44.534;18.700;2023-04-22T08:08:07;16.90;86.10
25512;DHT22;13414;44.534;18.700;2023-04-22T08:10:34;17.10;86.20
25512;DHT22;13414;44.534;18.700;2023-04-22T08:13:02;17.20;85.20
25512;DHT22;13414;44.534;18.700;2023-04-22T08:15:45;17.50;84.20
25512;DHT22;13414;44.534;18.700;2023-04-22T08:18:17;17.60;82.10
25512;DHT22;13414;44.534;18.700;2023-04-22T08:20:45;17.60;83.20
25512;DHT22;13414;44.534;18.700;2023-04-22T08:23:16;17.40;83.30
25512;DHT22;13414;44.534;18.700;2023-04-22T08:25:43;17.60;82.80
25512;DHT22;13414;44.534;18.700;2023-04-22T08:28:11;17.90;81.00
25512;DHT22;13414;44.534;18.700;2023-04-22T08:30:38;18.20;77.30
25512;DHT22;13414;44.534;18.700;2023-04-22T08:33:06;18.40;76.00
25512;DHT22;13414;44.534;18.700;2023-04-22T08:35:35;18.40;75.50
25512;DHT22;13414;44.534;18.700;2023-04-22T08:38:03;18.60;72.20
25512;DHT22;13414;44.534;18.700;2023-04-22T08:40:30;18.70;70.50
25512;DHT22;13414;44.534;18.700;2023-04-22T08:42:58;18.70;69.30
25512;DHT22;13414;44.534;18.700;2023-04-22T08:45:25;18.70;68.20
25512;DHT22;13414;44.534;18.700;2023-04-22T08:47:53;18.90;68.10
25512;DHT22;13414;44.534;18.700;2023-04-22T08:50:21;18.80;67.30
25512;DHT22;13414;44.534;18.700;2023-04-22T08:52:50;18.70;66.50
25512;DHT22;13414;44.534;18.700;2023-04-22T08:55:18;18.80;66.70
25512;DHT22;13414;44.534;18.700;2023-04-22T08:57:46;19.00;66.50
25512;DHT22;13414;44.534;18.700;2023-04-22T09:00:15;19.20;66.10
25512;DHT22;13414;44.534;18.700;2023-04-22T09:02:45;19.40;65.90
25512;DHT22;13414;44.534;18.700;2023-04-22T09:05:13;19.50;64.50
25512;DHT22;13414;44.534;18.700;2023-04-22T09:07:42;19.40;62.00
25512;DHT22;13414;44.534;18.700;2023-04-22T09:10:11;19.60;61.70
25512;DHT22;13414;44.534;18.700;2023-04-22T09:12:40;19.70;60.50
25512;DHT22;13414;44.534;18.700;2023-04-22T09:15:08;19.90;58.70
25512;DHT22;13414;44.534;18.700;2023-04-22T09:17:36;20.10;58.50
25512;DHT22;13414;44.534;18.700;2023-04-22T09:20:05;20.10;56.60
25512;DHT22;13414;44.534;18.700;2023-04-22T09:22:38;20.00;56.40
25512;DHT22;13414;44.534;18.700;2023-04-22T09:25:15;20.00;53.50
25512;DHT22;13414;44.534;18.700;2023-04-22T09:27:44;20.00;52.00
25512;DHT22;13414;44.534;18.700;2023-04-22T09:30:14;20.30;52.70
25512;DHT22;13414;44.534;18.700;2023-04-22T09:32:51;20.70;52.30
25512;DHT22;13414;44.534;18.700;2023-04-22T09:35:25;21.20;51.20
25512;DHT22;13414;44.534;18.700;2023-04-22T09:37:55;21.30;49.20
25512;DHT22;13414;44.534;18.700;2023-04-22T09:40:25;21.30;48.30
25512;DHT22;13414;44.534;18.700;2023-04-22T09:42:54;21.70;47.00
25512;DHT22;13414;44.534;18.700;2023-04-22T09:45:26;22.10;46.00
25512;DHT22;13414;44.534;18.700;2023-04-22T09:48:01;22.10;46.00
25512;DHT22;13414;44.534;18.700;2023-04-22T09:50:29;22.10;45.00
25512;DHT22;13414;44.534;18.700;2023-04-22T09:52:59;22.50;45.20
25512;DHT22;13414;44.534;18.700;2023-04-22T09:55:29;22.90;43.00
25512;DHT22;13414;44.534;18.700;2023-04-22T09:58:04;23.20;41.40
25512;DHT22;13414;44.534;18.700;2023-04-22T10:00:34;23.70;40.80
25512;DHT22;13414;44.534;18.700;2023-04-22T10:03:03;23.90;39.40
25512;DHT22;13414;44.534;18.700;2023-04-22T10:05:31;24.00;38.70
25512;DHT22;13414;44.534;18.700;2023-04-22T10:07:58;24.20;38.70
25512;DHT22;13414;44.534;18.700;2023-04-22T10:10:28;24.20;37.10
25512;DHT22;13414;44.534;18.700;2023-04-22T10:12:56;23.90;36.50
25512;DHT22;13414;44.534;18.700;2023-04-22T10:15:25;23.60;36.40
25512;DHT22;13414;44.534;18.700;2023-04-22T10:17:54;23.30;37.80
25512;DHT22;13414;44.534;18.700;2023-04-22T10:20:24;23.10;38.40
25512;DHT22;13414;44.534;18.700;2023-04-22T10:22:54;22.90;39.00
25512;DHT22;13414;44.534;18.700;2023-04-22T10:25:23;22.60;39.50
25512;DHT22;13414;44.534;18.700;2023-04-22T10:28:01;22.20;38.90
25512;DHT22;13414;44.534;18.700;2023-04-22T10:30:30;22.10;38.80
25512;DHT22;13414;44.534;18.700;2023-04-22T10:36:07;22.20;38.90
25512;DHT22;13414;44.534;18.700;2023-04-22T10:38:35;22.40;39.10
25512;DHT22;13414;44.534;18.700;2023-04-22T10:41:02;22.70;38.60
25512;DHT22;13414;44.534;18.700;2023-04-22T10:43:55;22.70;37.50
25512;DHT22;13414;44.534;18.700;2023-04-22T10:46:57;22.60;36.50
25512;DHT22;13414;44.534;18.700;2023-04-22T10:49:28;22.30;37.40
25512;DHT22;13414;44.534;18.700;2023-04-22T10:51:58;22.50;37.20
25512;DHT22;13414;44.534;18.700;2023-04-22T10:54:57;22.40;37.50
25512;DHT22;13414;44.534;18.700;2023-04-22T10:57:39;22.30;36.60
25512;DHT22;13414;44.534;18.700;2023-04-22T11:00:31;21.90;35.40
25512;DHT22;13414;44.534;18.700;2023-04-22T11:03:13;21.40;35.70
25512;DHT22;13414;44.534;18.700;2023-04-22T11:05:42;21.30;35.70
25512;DHT22;13414;44.534;18.700;2023-04-22T11:08:21;21.10;36.10
25512;DHT22;13414;44.534;18.700;2023-04-22T11:11:07;20.90;35.10
25512;DHT22;13414;44.534;18.700;2023-04-22T11:13:35;21.00;34.80
25512;DHT22;13414;44.534;18.700;2023-04-22T11:16:07;21.10;35.10
25512;DHT22;13414;44.534;18.700;2023-04-22T11:18:34;21.10;35.10
25512;DHT22;13414;44.534;18.700;2023-04-22T11:21:03;21.20;34.10
25512;DHT22;13414;44.534;18.700;2023-04-22T11:23:31;21.20;34.40
25512;DHT22;13414;44.534;18.700;2023-04-22T11:26:01;21.40;34.00
25512;DHT22;13414;44.534;18.700;2023-04-22T11:28:29;21.30;33.60
25512;DHT22;13414;44.534;18.700;2023-04-22T11:31:05;21.20;33.40
25512;DHT22;13414;44.534;18.700;2023-04-22T11:33:35;21.30;33.00
25512;DHT22;13414;44.534;18.700;2023-04-22T11:36:04;21.50;32.90
25512;DHT22;13414;44.534;18.700;2023-04-22T11:38:32;21.70;33.70
25512;DHT22;13414;44.534;18.700;2023-04-22T11:40:59;21.80;33.80
25512;DHT22;13414;44.534;18.700;2023-04-22T11:43:27;21.80;32.70
25512;DHT22;13414;44.534;18.700;2023-04-22T11:45:55;21.70;32.40
25512;DHT22;13414;44.534;18.700;2023-04-22T11:48:24;21.60;32.60
25512;DHT22;13414;44.534;18.700;2023-04-22T11:51:07;21.80;33.00
25512;DHT22;13414;44.534;18.700;2023-04-22T11:53:37;21.80;32.60
25512;DHT22;13414;44.534;18.700;2023-04-22T11:56:06;22.00;31.20
25512;DHT22;13414;44.534;18.700;2023-04-22T11:58:37;22.10;30.50
25512;DHT22;13414;44.534;18.700;2023-04-22T12:01:11;22.00;31.60
25512;DHT22;13414;44.534;18.700;2023-04-22T12:03:41;22.10;32.10
25512;DHT22;13414;44.534;18.700;2023-04-22T12:06:08;22.10;30.70
25512;DHT22;13414;44.534;18.700;2023-04-22T12:08:37;22.20;30.50
25512;DHT22;13414;44.534;18.700;2023-04-22T12:11:08;22.10;30.20
25512;DHT22;13414;44.534;18.700;2023-04-22T12:13:41;22.10;30.40
25512;DHT22;13414;44.534;18.700;2023-04-22T12:16:10;22.00;30.10
25512;DHT22;13414;44.534;18.700;2023-04-22T12:18:39;21.80;30.70
25512;DHT22;13414;44.534;18.700;2023-04-22T12:21:09;21.70;31.00
25512;DHT22;13414;44.534;18.700;2023-04-22T12:23:41;21.60;31.70
25512;DHT22;13414;44.534;18.700;2023-04-22T12:26:09;21.40;31.40
25512;DHT22;13414;44.534;18.700;2023-04-22T12:28:37;21.20;31.70
25512;DHT22;13414;44.534;18.700;2023-04-22T12:31:05;21.10;32.10
25512;DHT22;13414;44.534;18.700;2023-04-22T12:33:33;21.30;32.40
25512;DHT22;13414;44.534;18.700;2023-04-22T12:36:02;21.60;32.10
25512;DHT22;13414;44.534;18.700;2023-04-22T12:38:32;21.90;32.30
25512;DHT22;13414;44.534;18.700;2023-04-22T12:41:00;22.00;31.30
25512;DHT22;13414;44.534;18.700;2023-04-22T12:43:28;22.10;31.20
25512;DHT22;13414;44.534;18.700;2023-04-22T12:45:57;22.30;30.80
25512;DHT22;13414;44.534;18.700;2023-04-22T12:48:25;22.40;30.60
25512;DHT22;13414;44.534;18.700;2023-04-22T12:50:52;22.50;30.70
25512;DHT22;13414;44.534;18.700;2023-04-22T12:53:20;22.60;30.50
25512;DHT22;13414;44.534;18.700;2023-04-22T12:55:49;22.80;29.70
25512;DHT22;13414;44.534;18.700;2023-04-22T12:58:17;22.70;29.80
25512;DHT22;13414;44.534;18.700;2023-04-22T13:00:45;22.40;30.10
25512;DHT22;13414;44.534;18.700;2023-04-22T13:03:12;22.60;30.00
25512;DHT22;13414;44.534;18.700;2023-04-22T13:05:40;22.60;30.00
25512;DHT22;13414;44.534;18.700;2023-04-22T13:08:07;22.50;29.50
25512;DHT22;13414;44.534;18.700;2023-04-22T13:10:35;22.50;30.40
25512;DHT22;13414;44.534;18.700;2023-04-22T13:13:04;22.50;30.50
25512;DHT22;13414;44.534;18.700;2023-04-22T13:15:33;22.60;30.30
25512;DHT22;13414;44.534;18.700;2023-04-22T13:18:01;22.50;30.20
25512;DHT22;13414;44.534;18.700;2023-04-22T13:20:28;22.40;30.30
25512;DHT22;13414;44.534;18.700;2023-04-22T13:22:56;22.30;30.90
25512;DHT22;13414;44.534;18.700;2023-04-22T13:25:23;22.00;30.80
25512;DHT22;13414;44.534;18.700;2023-04-22T13:27:51;21.80;30.90
25512;DHT22;13414;44.534;18.700;2023-04-22T13:30:20;21.80;30.70
25512;DHT22;13414;44.534;18.700;2023-04-22T13:32:47;21.70;30.70
25512;DHT22;13414;44.534;18.700;2023-04-22T13:35:14;21.70;31.50
25512;DHT22;13414;44.534;18.700;2023-04-22T13:37:43;21.30;30.80
25512;DHT22;13414;44.534;18.700;2023-04-22T13:40:11;21.30;32.40
25512;DHT22;13414;44.534;18.700;2023-04-22T13:42:39;21.40;32.20
25512;DHT22;13414;44.534;18.700;2023-04-22T13:45:09;21.30;32.10
25512;DHT22;13414;44.534;18.700;2023-04-22T13:47:38;21.30;31.30
25512;DHT22;13414;44.534;18.700;2023-04-22T13:50:07;21.00;32.00
25512;DHT22;13414;44.534;18.700;2023-04-22T13:52:34;20.90;31.30
25512;DHT22;13414;44.534;18.700;2023-04-22T13:55:05;20.90;31.40
25512;DHT22;13414;44.534;18.700;2023-04-22T13:57:33;20.80;31.80
25512;DHT22;13414;44.534;18.700;2023-04-22T14:00:01;20.90;31.60
25512;DHT22;13414;44.534;18.700;2023-04-22T14:02:39;20.90;31.10
25512;DHT22;13414;44.534;18.700;2023-04-22T14:05:07;20.90;31.40
25512;DHT22;13414;44.534;18.700;2023-04-22T14:07:35;21.00;31.10
25512;DHT22;13414;44.534;18.700;2023-04-22T14:10:03;20.80;31.10
25512;DHT22;13414;44.534;18.700;2023-04-22T14:12:33;20.90;30.80
25512;DHT22;13414;44.534;18.700;2023-04-22T14:15:01;20.90;30.80
25512;DHT22;13414;44.534;18.700;2023-04-22T14:17:28;20.90;31.70
25512;DHT22;13414;44.534;18.700;2023-04-22T14:19:57;20.80;31.40
25512;DHT22;13414;44.534;18.700;2023-04-22T14:22:25;20.50;31.30
25512;DHT22;13414;44.534;18.700;2023-04-22T14:24:53;20.40;32.10
25512;DHT22;13414;44.534;18.700;2023-04-22T14:27:21;20.50;32.30
25512;DHT22;13414;44.534;18.700;2023-04-22T14:29:48;20.60;31.70
25512;DHT22;13414;44.534;18.700;2023-04-22T14:32:17;20.50;31.40
25512;DHT22;13414;44.534;18.700;2023-04-22T14:34:45;20.60;31.30
25512;DHT22;13414;44.534;18.700;2023-04-22T14:37:13;20.60;31.20
25512;DHT22;13414;44.534;18.700;2023-04-22T14:39:41;20.80;31.70
25512;DHT22;13414;44.534;18.700;2023-04-22T14:42:08;20.90;30.80
25512;DHT22;13414;44.534;18.700;2023-04-22T14:44:36;21.00;30.70
25512;DHT22;13414;44.534;18.700;2023-04-22T14:47:05;21.10;31.50
25512;DHT22;13414;44.534;18.700;2023-04-22T14:49:33;21.20;30.40
25512;DHT22;13414;44.534;18.700;2023-04-22T14:52:01;21.10;30.00
25512;DHT22;13414;44.534;18.700;2023-04-22T14:54:30;21.10;30.00
25512;DHT22;13414;44.534;18.700;2023-04-22T14:56:57;21.10;29.70
25512;DHT22;13414;44.534;18.700;2023-04-22T14:59:25;21.00;29.60
25512;DHT22;13414;44.534;18.700;2023-04-22T15:01:53;21.00;29.90
25512;DHT22;13414;44.534;18.700;2023-04-22T15:04:20;21.00;30.30
25512;DHT22;13414;44.534;18.700;2023-04-22T15:06:48;20.90;30.00
25512;DHT22;13414;44.534;18.700;2023-04-22T15:09:15;20.90;30.00
25512;DHT22;13414;44.534;18.700;2023-04-22T15:11:44;20.90;30.10
25512;DHT22;13414;44.534;18.700;2023-04-22T15:14:12;20.90;30.30
25512;DHT22;13414;44.534;18.700;2023-04-22T15:16:39;20.80;30.00
25512;DHT22;13414;44.534;18.700;2023-04-22T15:19:07;20.70;30.00
25512;DHT22;13414;44.534;18.700;2023-04-22T15:21:34;20.70;29.90
25512;DHT22;13414;44.534;18.700;2023-04-22T15:24:02;20.70;30.20
25512;DHT22;13414;44.534;18.700;2023-04-22T15:26:29;20.70;30.80
25512;DHT22;13414;44.534;18.700;2023-04-22T15:28:59;20.60;30.90
25512;DHT22;13414;44.534;18.700;2023-04-22T15:31:26;20.70;31.20
25512;DHT22;13414;44.534;18.700;2023-04-22T15:33:54;20.60;31.20
25512;DHT22;13414;44.534;18.700;2023-04-22T15:36:21;20.60;31.00
25512;DHT22;13414;44.534;18.700;2023-04-22T15:38:53;20.70;30.60
25512;DHT22;13414;44.534;18.700;2023-04-22T15:41:22;20.50;31.00